createdAt,value
2018-08-17T00:01:06.906Z,68.60
2018-08-17T00:03:36.711Z,68.90
2018-08-17T00:06:06.867Z,68.70
2018-08-17T00:08:36.862Z,68.60
2018-08-17T00:11:07.016Z,68.80
2018-08-17T00:13:36.936Z,68.90
2018-08-17T00:16:07.233Z,69.30
2018-08-17T00:18:37.446Z,70.00
2018-08-17T00:21:07.685Z,70.50
2018-08-17T00:23:37.751Z,70.30
2018-08-17T00:26:07.794Z,70.10
2018-08-17T00:28:37.749Z,70.20
2018-08-17T00:31:07.751Z,70.30
2018-08-17T00:33:37.583Z,71.00
2018-08-17T00:36:07.312Z,70.40
2018-08-17T00:38:37.327Z,70.70
2018-08-17T00:41:07.470Z,71.10
2018-08-17T00:43:37.586Z,71.70
2018-08-17T00:46:08.408Z,71.50
2018-08-17T00:48:38.434Z,71.40
2018-08-17T00:51:08.956Z,71.50
2018-08-17T00:53:39.271Z,71.70
2018-08-17T00:56:09.210Z,71.70
2018-08-17T00:58:39.237Z,71.80
2018-08-17T01:01:09.326Z,72.30
2018-08-17T01:03:39.798Z,73.00
2018-08-17T01:06:09.680Z,73.00
2018-08-17T01:08:39.663Z,72.90
2018-08-17T01:11:09.632Z,72.80
2018-08-17T01:13:39.383Z,72.70
2018-08-17T01:16:09.462Z,72.80
2018-08-17T01:18:39.408Z,73.20
2018-08-17T01:21:09.436Z,73.30
2018-08-17T01:23:39.802Z,73.40
2018-08-17T01:26:09.821Z,74.30
2018-08-17T01:28:39.612Z,75.60
2018-08-17T01:31:09.546Z,75.00
2018-08-17T01:33:40.571Z,75.00
2018-08-17T01:36:11.757Z,75.00
2018-08-17T01:38:41.599Z,74.80
2018-08-17T01:41:11.407Z,74.70
2018-08-17T01:43:41.384Z,74.40
2018-08-17T01:46:11.400Z,74.70
2018-08-17T01:48:41.362Z,75.20
2018-08-17T01:51:11.286Z,74.90
2018-08-17T01:53:41.141Z,75.00
2018-08-17T01:56:11.146Z,74.90
2018-08-17T01:58:41.131Z,75.00
2018-08-17T02:01:11.139Z,74.60
2018-08-17T02:03:41.220Z,74.80
2018-08-17T02:06:11.169Z,74.70
2018-08-17T02:08:41.146Z,74.40
2018-08-17T02:11:11.047Z,74.30
2018-08-17T02:13:40.996Z,74.30
2018-08-17T02:16:11.035Z,74.80
2018-08-17T02:18:40.887Z,76.20
2018-08-17T02:21:10.844Z,77.40
2018-08-17T02:23:40.812Z,77.90
2018-08-17T02:26:10.895Z,78.00
2018-08-17T02:28:40.698Z,79.00
2018-08-17T02:31:11.710Z,79.00
2018-08-17T02:38:39.656Z,82.20
2018-08-17T02:41:09.485Z,84.50
2018-08-17T02:43:39.624Z,85.00
2018-08-17T02:46:09.521Z,84.30
2018-08-17T02:48:42.274Z,84.90
2018-08-17T02:51:12.395Z,84.90
2018-08-17T02:53:42.282Z,84.80
2018-08-17T02:56:12.170Z,85.30
2018-08-17T02:58:42.003Z,86.20
2018-08-17T03:01:11.974Z,86.40
2018-08-17T03:03:41.717Z,86.70
2018-08-17T03:06:11.630Z,87.80
2018-08-17T03:08:41.487Z,87.70
2018-08-17T03:11:11.660Z,87.40
2018-08-17T03:13:41.578Z,87.50
2018-08-17T03:16:11.885Z,87.20
2018-08-17T03:18:41.921Z,87.10
2018-08-17T03:21:11.826Z,87.10
2018-08-17T03:29:43.155Z,87.30
2018-08-17T03:32:14.132Z,87.30
2018-08-17T03:34:44.901Z,87.40
2018-08-17T03:37:15.006Z,87.10
2018-08-17T03:39:44.963Z,87.30
2018-08-17T03:42:14.971Z,86.20
2018-08-17T03:44:44.879Z,85.50
2018-08-17T03:47:14.828Z,87.40
2018-08-17T03:49:44.729Z,86.90
2018-08-17T03:52:14.646Z,86.50
2018-08-17T03:54:44.542Z,86.50
2018-08-17T03:57:14.505Z,86.80
2018-08-17T03:59:44.376Z,86.90
2018-08-17T04:02:14.255Z,87.10
2018-08-17T04:04:44.099Z,86.70
2018-08-17T04:07:13.990Z,87.30
2018-08-17T04:09:43.867Z,87.00
2018-08-17T04:12:13.879Z,86.50
2018-08-17T04:14:43.696Z,85.90
2018-08-17T04:17:13.677Z,85.70
2018-08-17T04:19:43.450Z,87.00
2018-08-17T04:22:13.386Z,86.50
2018-08-17T04:24:43.082Z,87.00
2018-08-17T04:27:13.027Z,86.60
2018-08-17T04:29:43.021Z,86.50
2018-08-17T04:32:12.724Z,85.70
2018-08-17T04:34:42.735Z,86.20
2018-08-17T04:37:12.500Z,85.30
2018-08-17T04:39:42.428Z,85.70
2018-08-17T04:42:12.270Z,87.00
2018-08-17T04:44:42.291Z,86.90
2018-08-17T04:47:12.126Z,86.60
2018-08-17T04:49:42.120Z,87.10
2018-08-17T04:52:12.155Z,86.60
2018-08-17T04:54:41.952Z,86.80
2018-08-17T04:57:11.865Z,86.30
2018-08-17T04:59:41.849Z,85.70
2018-08-17T05:02:11.851Z,85.00
2018-08-17T05:04:41.781Z,84.90
2018-08-17T05:07:12.646Z,84.70
2018-08-17T05:09:42.605Z,84.70
2018-08-17T05:12:12.460Z,84.70
2018-08-17T05:14:42.290Z,84.20
2018-08-17T05:17:12.293Z,85.20
2018-08-17T05:19:42.170Z,84.70
2018-08-17T05:22:12.108Z,84.90
2018-08-17T05:24:42.001Z,84.80
2018-08-17T05:27:11.933Z,84.60
2018-08-17T05:29:41.581Z,84.20
2018-08-17T05:32:11.657Z,83.70
2018-08-17T05:34:42.222Z,83.80
2018-08-17T05:37:12.212Z,83.20
2018-08-17T05:39:42.090Z,82.90
2018-08-17T05:42:11.901Z,82.30
2018-08-17T05:44:41.961Z,82.30
2018-08-17T05:47:11.815Z,82.10
2018-08-17T05:49:41.868Z,83.00
2018-08-17T05:52:11.836Z,83.10
2018-08-17T05:54:41.436Z,83.20
2018-08-17T05:57:11.382Z,83.10
2018-08-17T05:59:41.300Z,82.60
2018-08-17T06:02:11.291Z,82.60
2018-08-17T06:04:41.348Z,83.20
2018-08-17T06:07:11.263Z,83.20
2018-08-17T06:09:41.095Z,82.70
2018-08-17T06:12:10.946Z,82.70
2018-08-17T06:14:40.909Z,82.50
2018-08-17T06:17:10.871Z,83.10
2018-08-17T06:19:40.642Z,82.80
2018-08-17T06:22:10.602Z,82.70
2018-08-17T06:24:40.556Z,82.60
2018-08-17T06:27:10.233Z,84.20
2018-08-17T06:29:40.068Z,84.70
2018-08-17T06:32:10.781Z,85.60
2018-08-17T06:39:33.319Z,87.00
2018-08-17T06:42:03.233Z,90.20
2018-08-17T06:44:33.125Z,91.00
2018-08-17T06:47:03.154Z,92.00
2018-08-17T06:49:33.069Z,92.20
2018-08-17T06:52:03.054Z,92.50
2018-08-17T06:54:32.852Z,93.70
2018-08-17T06:57:02.615Z,95.10
2018-08-17T06:59:32.370Z,94.40
2018-08-17T07:02:02.412Z,94.50
2018-08-17T07:04:32.425Z,94.60
2018-08-17T07:07:02.532Z,95.50
2018-08-17T07:09:32.583Z,95.40
2018-08-17T07:12:02.718Z,95.20
2018-08-17T07:14:32.795Z,95.30
2018-08-17T07:17:02.593Z,95.30
2018-08-17T07:19:33.359Z,95.10
2018-08-17T07:22:04.300Z,96.00
2018-08-17T07:24:34.100Z,96.10
2018-08-17T07:27:04.029Z,95.60
2018-08-17T07:29:33.946Z,94.50
2018-08-17T07:32:03.915Z,94.30
2018-08-17T07:34:33.853Z,94.60
2018-08-17T07:37:03.747Z,94.80
2018-08-17T07:39:33.777Z,95.50
2018-08-17T07:42:03.720Z,95.40
2018-08-17T07:44:33.697Z,96.30
2018-08-17T07:47:03.640Z,96.90
2018-08-17T07:49:33.623Z,95.70
2018-08-17T07:52:03.496Z,96.00
2018-08-17T07:54:33.670Z,95.80
2018-08-17T07:57:03.721Z,95.80
2018-08-17T07:59:33.756Z,95.20
2018-08-17T08:02:03.901Z,95.80
2018-08-17T08:04:34.017Z,95.80
2018-08-17T08:07:04.213Z,94.30
2018-08-17T08:09:34.165Z,94.30
2018-08-17T08:12:04.181Z,95.10
2018-08-17T08:14:34.172Z,95.70
2018-08-17T08:17:03.949Z,95.40
2018-08-17T08:19:33.739Z,95.90
2018-08-17T08:22:04.387Z,95.40
2018-08-17T08:29:37.661Z,95.60
2018-08-17T08:32:07.625Z,94.40
2018-08-17T08:34:37.747Z,94.00
2018-08-17T08:37:07.901Z,94.30
2018-08-17T08:39:37.926Z,94.40
2018-08-17T08:42:07.920Z,94.80
2018-08-17T08:44:37.867Z,94.20
2018-08-17T08:47:07.980Z,94.20
2018-08-17T08:49:38.036Z,93.70
2018-08-17T08:52:08.126Z,93.30
2018-08-17T08:54:38.125Z,93.30
2018-08-17T08:57:08.211Z,93.20
2018-08-17T08:59:37.920Z,93.50
2018-08-17T09:02:07.943Z,92.50
2018-08-17T09:04:37.801Z,92.60
2018-08-17T09:07:08.074Z,92.30
2018-08-17T09:09:38.006Z,92.20
2018-08-17T09:12:07.985Z,93.00
2018-08-17T09:14:37.940Z,93.30
2018-08-17T09:17:07.924Z,93.70
2018-08-17T09:19:37.935Z,94.70
2018-08-17T09:22:08.079Z,94.30
2018-08-17T09:24:38.164Z,94.10
2018-08-17T09:27:08.125Z,94.70
2018-08-17T09:29:38.277Z,95.30
2018-08-17T09:37:02.770Z,94.90
2018-08-17T09:39:32.781Z,94.20
2018-08-17T09:42:02.874Z,94.10
2018-08-17T09:44:33.113Z,94.30
2018-08-17T09:47:03.262Z,93.70
2018-08-17T09:49:33.224Z,93.90
2018-08-17T09:52:03.187Z,92.00
2018-08-17T09:54:33.389Z,92.50
2018-08-17T09:57:03.319Z,93.00
2018-08-17T09:59:33.316Z,92.90
2018-08-17T10:02:09.967Z,92.90
2018-08-17T10:05:44.007Z,92.90
2018-08-17T10:09:20.203Z,92.20
2018-08-17T10:11:51.659Z,92.00
2018-08-17T10:14:21.860Z,92.30
2018-08-17T10:16:51.943Z,91.90
2018-08-17T10:19:21.907Z,91.40
2018-08-17T10:21:53.437Z,91.10
2018-08-17T10:24:23.784Z,91.10
2018-08-17T10:26:55.110Z,91.50
2018-08-17T10:29:25.142Z,91.80
2018-08-17T10:31:55.118Z,92.10
2018-08-17T10:34:25.095Z,92.10
2018-08-17T10:36:54.971Z,92.20
2018-08-17T10:39:24.938Z,92.10
2018-08-17T10:41:55.004Z,91.80
2018-08-17T10:44:24.885Z,91.70
2018-08-17T10:46:55.098Z,92.40
2018-08-17T10:49:25.347Z,92.20
2018-08-17T10:51:58.096Z,92.10
2018-08-17T10:54:27.986Z,92.00
2018-08-17T10:56:57.939Z,91.20
2018-08-17T10:59:27.836Z,90.80
2018-08-17T11:01:57.820Z,91.30
2018-08-17T11:04:27.841Z,89.80
2018-08-17T11:06:57.797Z,90.10
2018-08-17T11:09:27.524Z,89.50
2018-08-17T11:11:57.811Z,87.50
2018-08-17T11:19:20.122Z,89.80
2018-08-17T11:21:50.147Z,88.10
2018-08-17T11:24:20.220Z,89.40
2018-08-17T11:26:50.311Z,90.10
2018-08-17T11:29:20.168Z,90.00
2018-08-17T11:31:53.114Z,90.20
2018-08-17T11:34:23.051Z,88.50
2018-08-17T11:36:53.005Z,89.90
2018-08-17T11:39:22.979Z,85.20
2018-08-17T11:41:53.012Z,85.10
2018-08-17T11:44:22.971Z,84.70
2018-08-17T11:46:52.946Z,86.90
2018-08-17T11:49:23.150Z,87.90
2018-08-17T11:51:53.189Z,87.70
2018-08-17T11:54:23.177Z,87.00
2018-08-17T11:56:52.978Z,87.20
2018-08-17T11:59:22.986Z,88.60
2018-08-17T12:01:53.362Z,89.60
2018-08-17T12:04:23.384Z,90.10
2018-08-17T12:06:53.688Z,89.70
2018-08-17T12:09:23.835Z,90.00
2018-08-17T12:11:54.927Z,90.30
2018-08-17T12:14:24.831Z,90.30
2018-08-17T12:16:54.911Z,90.70
2018-08-17T12:19:24.963Z,88.80
2018-08-17T12:21:54.769Z,89.20
2018-08-17T12:24:24.799Z,90.20
2018-08-17T12:26:54.687Z,90.50
2018-08-17T12:29:24.703Z,90.30
2018-08-17T12:31:54.642Z,90.20
2018-08-17T12:34:24.606Z,90.40
2018-08-17T12:36:54.627Z,90.70
2018-08-17T12:39:24.941Z,91.90
2018-08-17T12:41:55.189Z,92.30
2018-08-17T12:44:25.193Z,92.50
2018-08-17T12:46:55.220Z,93.10
2018-08-17T12:49:25.356Z,93.20
2018-08-17T12:51:55.525Z,92.90
2018-08-17T12:54:30.674Z,93.20
2018-08-17T12:57:01.518Z,92.70
2018-08-17T12:59:32.205Z,92.30
2018-08-17T13:02:02.272Z,90.90
2018-08-17T13:04:32.278Z,90.30
2018-08-17T13:07:02.319Z,89.50
2018-08-17T13:09:32.449Z,86.50
2018-08-17T13:12:02.785Z,86.20
2018-08-17T13:14:32.806Z,85.20
2018-08-17T13:17:02.579Z,82.90
2018-08-17T13:19:32.581Z,80.10
2018-08-17T13:22:02.703Z,79.80
2018-08-17T13:24:33.749Z,79.00
2018-08-17T13:27:04.870Z,76.50
2018-08-17T13:29:36.060Z,77.20
2018-08-17T13:32:06.195Z,77.30
2018-08-17T13:34:36.234Z,76.50
2018-08-17T13:37:06.399Z,75.20
2018-08-17T13:39:36.715Z,75.70
2018-08-17T13:42:07.013Z,72.80
2018-08-17T13:44:37.138Z,73.40
2018-08-17T13:47:07.312Z,74.30
2018-08-17T13:49:37.371Z,73.60
2018-08-17T13:52:07.627Z,72.70
2018-08-17T13:54:37.815Z,70.70
2018-08-17T13:57:07.917Z,70.00
2018-08-17T13:59:37.886Z,70.10
2018-08-17T14:02:08.340Z,72.50
2018-08-17T14:04:38.655Z,71.30
2018-08-17T14:07:08.754Z,70.90
2018-08-17T14:09:39.013Z,71.50
2018-08-17T14:12:10.070Z,72.40
2018-08-17T14:14:39.901Z,71.10
2018-08-17T14:17:09.981Z,68.90
2018-08-17T14:19:40.087Z,66.00
2018-08-17T14:22:10.117Z,65.60
2018-08-17T14:24:40.308Z,64.20
2018-08-17T14:27:10.609Z,65.20
2018-08-17T14:29:40.640Z,65.10
2018-08-17T14:32:10.637Z,65.40
2018-08-17T14:34:40.771Z,63.40
2018-08-17T14:37:10.960Z,62.50
2018-08-17T14:39:41.052Z,61.20
2018-08-17T14:42:11.295Z,59.80
2018-08-17T14:44:41.389Z,55.50
2018-08-17T14:47:11.414Z,55.20
2018-08-17T14:49:41.532Z,50.80
2018-08-17T14:52:11.621Z,50.50
2018-08-17T14:54:41.674Z,51.30
2018-08-17T14:57:11.967Z,49.70
2018-08-17T14:59:42.009Z,48.20
2018-08-17T15:02:11.989Z,45.60
2018-08-17T15:04:42.061Z,45.90
2018-08-17T15:07:12.265Z,45.70
2018-08-17T15:09:42.263Z,45.70
2018-08-17T15:12:12.532Z,46.00
2018-08-17T15:14:42.576Z,45.80
2018-08-17T15:17:12.635Z,46.50
2018-08-17T15:19:42.809Z,45.90
2018-08-17T15:22:13.180Z,46.20
2018-08-17T15:24:43.345Z,45.40
2018-08-17T15:27:13.540Z,44.90
2018-08-17T15:29:43.665Z,44.00
2018-08-17T15:32:13.888Z,43.60
2018-08-17T15:34:44.031Z,42.20
2018-08-17T15:37:14.143Z,42.20
2018-08-17T15:39:44.264Z,41.80
2018-08-17T15:42:14.714Z,40.50
2018-08-17T15:44:44.910Z,40.00
2018-08-17T15:47:16.899Z,38.00
2018-08-17T15:50:06.874Z,38.30
2018-08-17T15:52:36.914Z,37.90
2018-08-17T15:55:06.978Z,37.50
2018-08-17T15:57:37.089Z,36.90
2018-08-17T16:00:09.859Z,36.70
2018-08-17T16:02:39.845Z,36.30
2018-08-17T16:05:09.830Z,35.70
2018-08-17T16:07:39.961Z,35.90
2018-08-17T16:10:13.145Z,35.70
2018-08-17T16:12:43.108Z,36.40
2018-08-17T16:15:13.216Z,37.40
2018-08-17T16:17:43.362Z,39.10
2018-08-17T16:20:13.857Z,38.20
2018-08-17T16:22:44.504Z,37.00
2018-08-17T16:25:15.443Z,35.20
2018-08-17T16:27:46.388Z,34.90
2018-08-17T16:30:17.568Z,33.60
2018-08-17T16:32:47.710Z,33.20
2018-08-17T16:35:17.779Z,32.20
2018-08-17T16:37:48.797Z,33.70
2018-08-17T16:40:18.782Z,33.60
2018-08-17T16:42:52.088Z,33.40
2018-08-17T16:45:22.848Z,32.50
2018-08-17T16:47:52.934Z,32.20
2018-08-17T16:50:23.075Z,32.90
2018-08-17T16:52:53.303Z,32.80
2018-08-17T16:55:26.219Z,32.60
2018-08-17T16:57:56.418Z,32.50
2018-08-17T17:00:26.603Z,32.50
2018-08-17T17:02:56.665Z,32.30
2018-08-17T17:05:26.844Z,31.20
2018-08-17T17:07:57.886Z,32.30
2018-08-17T17:10:31.282Z,33.20
2018-08-17T17:13:01.228Z,33.20
2018-08-17T17:15:31.374Z,33.80
2018-08-17T17:18:08.272Z,33.60
2018-08-17T17:20:39.689Z,34.00
2018-08-17T17:23:11.235Z,35.30
2018-08-17T17:25:41.774Z,34.90
2018-08-17T17:28:11.667Z,35.50
2018-08-17T17:30:47.496Z,35.50
2018-08-17T17:33:17.700Z,34.00
2018-08-17T17:35:48.367Z,33.90
2018-08-17T17:38:18.540Z,35.00
2018-08-17T17:40:48.773Z,35.90
2018-08-17T17:43:18.994Z,37.40
2018-08-17T17:45:49.127Z,38.20
2018-08-17T17:48:19.237Z,39.00
2018-08-17T17:50:49.264Z,39.60
2018-08-17T17:53:19.715Z,40.10
2018-08-17T17:55:50.866Z,40.80
2018-08-17T17:58:22.074Z,40.80
2018-08-17T18:00:59.679Z,41.20
2018-08-17T18:03:32.146Z,41.80
2018-08-17T18:06:06.155Z,42.90
2018-08-17T18:08:37.688Z,42.40
2018-08-17T18:11:08.548Z,43.50
2018-08-17T18:13:38.803Z,44.30
2018-08-17T18:16:10.292Z,44.80
2018-08-17T18:18:40.855Z,45.60
2018-08-17T18:21:11.661Z,46.00
2018-08-17T18:23:42.160Z,46.80
2018-08-17T18:26:18.925Z,47.00
2018-08-17T18:28:49.063Z,47.70
2018-08-17T18:31:19.424Z,48.20
2018-08-17T18:33:49.849Z,49.10
2018-08-17T18:36:22.479Z,48.70
2018-08-17T18:38:54.349Z,49.30
2018-08-17T18:41:26.594Z,49.80
2018-08-17T18:43:59.272Z,50.40
2018-08-17T18:46:31.624Z,50.80
2018-08-17T18:49:03.723Z,51.30
2018-08-17T18:51:34.559Z,51.50
2018-08-17T18:54:05.249Z,52.10
2018-08-17T18:56:37.607Z,52.20
2018-08-17T18:59:08.883Z,52.90
2018-08-17T19:01:39.366Z,53.00
2018-08-17T19:04:09.702Z,53.60
2018-08-17T19:06:39.874Z,53.70
2018-08-17T19:09:10.350Z,53.50
2018-08-17T19:11:40.425Z,53.60
2018-08-17T19:14:10.723Z,54.10
2018-08-17T19:16:42.761Z,55.30
2018-08-17T19:19:14.468Z,54.20
2018-08-17T19:21:45.896Z,54.30
2018-08-17T19:24:16.152Z,54.80
2018-08-17T19:26:46.454Z,55.00
2018-08-17T19:29:18.195Z,54.80
2018-08-17T19:31:53.870Z,55.00
2018-08-17T19:34:28.438Z,54.40
2018-08-17T19:37:00.151Z,54.60
2018-08-17T19:39:33.746Z,54.80
2018-08-17T19:42:04.346Z,55.50
2018-08-17T19:44:34.400Z,54.40
2018-08-17T19:47:04.635Z,55.00
2018-08-17T19:49:34.877Z,55.30
2018-08-17T19:52:05.171Z,54.90
2018-08-17T19:54:35.332Z,55.10
2018-08-17T19:57:05.881Z,55.90
2018-08-17T19:59:36.078Z,56.20
2018-08-17T20:02:06.127Z,55.90
2018-08-17T20:04:36.209Z,55.70
2018-08-17T20:07:06.470Z,56.00
2018-08-17T20:09:36.531Z,55.80
2018-08-17T20:12:06.891Z,55.90
2018-08-17T20:14:37.138Z,55.90
2018-08-17T20:17:07.755Z,56.10
2018-08-17T20:19:43.027Z,56.20
2018-08-17T20:22:19.363Z,56.40
2018-08-17T20:24:49.762Z,56.70
2018-08-17T20:27:20.892Z,57.10
2018-08-17T20:29:51.286Z,57.20
2018-08-17T20:32:21.681Z,57.30
2018-08-17T20:34:51.979Z,57.10
2018-08-17T20:37:23.550Z,57.40
2018-08-17T20:39:54.373Z,57.30
2018-08-17T20:42:24.709Z,57.80
2018-08-17T20:44:54.624Z,59.30
2018-08-17T20:47:24.494Z,60.40
2018-08-17T20:49:55.741Z,61.30
2018-08-17T20:52:26.109Z,61.90
2018-08-17T20:54:57.001Z,62.60
2018-08-17T20:57:27.487Z,63.50
2018-08-17T20:59:57.566Z,64.50
2018-08-17T21:02:27.952Z,64.30
2018-08-17T21:04:58.704Z,64.70
2018-08-17T21:07:29.706Z,65.10
2018-08-17T21:09:59.856Z,65.50
2018-08-17T21:12:29.631Z,65.90
2018-08-17T21:14:59.804Z,66.20
2018-08-17T21:17:29.848Z,66.40
2018-08-17T21:20:00.020Z,67.00
2018-08-17T21:22:30.363Z,67.30
2018-08-17T21:25:00.573Z,67.10
2018-08-17T21:27:31.698Z,67.70
2018-08-17T21:30:04.951Z,68.50
2018-08-17T21:32:36.695Z,68.60
2018-08-17T21:35:07.937Z,68.80
2018-08-17T21:37:38.239Z,69.10
2018-08-17T21:40:16.812Z,69.30
2018-08-17T21:42:47.699Z,69.60
2018-08-17T21:45:17.953Z,69.80
2018-08-17T21:47:47.963Z,69.90
2018-08-17T21:50:19.274Z,69.90
2018-08-17T21:52:49.831Z,70.20
2018-08-17T21:55:19.969Z,70.70
2018-08-17T21:57:49.832Z,71.20
2018-08-17T22:00:36.887Z,70.50
2018-08-17T22:03:17.628Z,70.50
2018-08-17T22:05:47.664Z,70.00
2018-08-17T22:08:17.811Z,70.60
2018-08-17T22:10:47.864Z,71.00
2018-08-17T22:13:32.325Z,71.30
2018-08-17T22:16:02.888Z,71.40
2018-08-17T22:18:33.533Z,72.10
2018-08-17T22:21:03.656Z,72.20
2018-08-17T22:23:33.697Z,73.50
2018-08-17T22:26:03.714Z,73.60
2018-08-17T22:28:34.407Z,73.50
2018-08-17T22:31:05.088Z,73.60
2018-08-17T22:33:34.932Z,73.50
2018-08-17T22:36:08.283Z,73.70
2018-08-17T22:38:42.393Z,74.70
2018-08-17T22:41:12.478Z,75.20
2018-08-17T22:43:42.599Z,76.50
2018-08-17T22:46:12.650Z,76.80
2018-08-17T22:48:42.910Z,77.90
2018-08-17T22:51:12.781Z,77.90
2018-08-17T22:53:43.711Z,77.30
2018-08-17T22:56:13.630Z,77.30
2018-08-17T22:58:48.467Z,77.40
2018-08-17T23:01:20.274Z,77.50
2018-08-17T23:03:55.056Z,76.80
2018-08-17T23:06:26.449Z,79.80
2018-08-17T23:08:56.402Z,79.50
2018-08-17T23:11:34.047Z,79.30
2018-08-17T23:14:08.179Z,79.20
2018-08-17T23:16:38.245Z,79.20
2018-08-17T23:19:08.478Z,79.10
2018-08-17T23:21:38.759Z,79.40
2018-08-17T23:24:09.190Z,79.40
2018-08-17T23:26:39.303Z,78.80
2018-08-17T23:29:09.252Z,79.20
2018-08-17T23:31:39.122Z,79.30
2018-08-17T23:34:08.912Z,79.80
2018-08-17T23:36:38.804Z,80.00
2018-08-17T23:39:10.611Z,79.80
2018-08-17T23:41:40.723Z,79.80
2018-08-17T23:44:10.448Z,79.70
2018-08-17T23:46:40.435Z,79.90
2018-08-17T23:49:10.092Z,79.60
2018-08-17T23:51:39.934Z,79.40
2018-08-17T23:54:10.603Z,79.70
2018-08-17T23:56:40.632Z,79.20
2018-08-17T23:59:10.594Z,79.60
